createdAt,value
2023-06-20T00:01:30.565Z,74.50
2023-06-20T00:03:57.419Z,74.60
2023-06-20T00:06:24.281Z,74.70
2023-06-20T00:08:51.814Z,74.80
2023-06-20T00:11:18.673Z,74.80
2023-06-20T00:13:45.554Z,74.80
2023-06-20T00:16:12.657Z,74.90
2023-06-20T00:18:39.552Z,74.90
2023-06-20T00:21:06.394Z,75.00
2023-06-20T00:23:33.219Z,75.00
2023-06-20T00:26:00.051Z,75.00
2023-06-20T00:28:26.992Z,75.10
2023-06-20T00:30:54.647Z,75.10
2023-06-20T00:33:24.541Z,75.20
2023-06-20T00:35:51.439Z,75.30
2023-06-20T00:38:19.473Z,75.30
2023-06-20T00:40:46.478Z,75.40
2023-06-20T00:43:13.562Z,75.40
2023-06-20T00:45:40.456Z,75.60
2023-06-20T00:48:08.058Z,75.60
2023-06-20T00:50:35.535Z,75.70
2023-06-20T00:53:06.752Z,75.70
2023-06-20T00:55:35.033Z,75.70
2023-06-20T00:58:02.878Z,75.80
2023-06-20T01:00:34.323Z,76.00
2023-06-20T01:03:13.303Z,76.10
2023-06-20T01:05:49.981Z,76.20
2023-06-20T01:08:27.082Z,76.30
2023-06-20T01:11:26.433Z,76.40
2023-06-20T01:14:01.365Z,76.40
2023-06-20T01:16:36.573Z,76.60
2023-06-20T01:19:26.728Z,76.70
2023-06-20T01:21:55.345Z,76.70
2023-06-20T01:24:31.177Z,76.80
2023-06-20T01:27:01.164Z,76.90
2023-06-20T01:29:35.883Z,77.00
2023-06-20T01:32:06.236Z,77.10
2023-06-20T01:34:38.629Z,77.20
2023-06-20T01:37:07.933Z,77.30
2023-06-20T01:39:43.022Z,77.40
2023-06-20T01:42:10.555Z,77.40
2023-06-20T01:44:38.785Z,77.50
2023-06-20T01:47:07.164Z,77.50
2023-06-20T01:49:34.468Z,77.60
2023-06-20T01:52:01.930Z,77.70
2023-06-20T01:54:30.389Z,77.70
2023-06-20T01:57:00.583Z,77.80
2023-06-20T01:59:28.282Z,77.90
2023-06-20T02:01:56.344Z,78.00
2023-06-20T02:04:25.185Z,78.00
2023-06-20T02:06:52.155Z,78.10
2023-06-20T02:09:20.056Z,78.20
2023-06-20T02:11:47.720Z,78.40
2023-06-20T02:14:15.030Z,78.50
2023-06-20T02:16:42.343Z,78.80
2023-06-20T02:19:10.809Z,78.60
2023-06-20T02:21:41.363Z,78.70
2023-06-20T02:24:11.867Z,78.80
2023-06-20T02:26:40.766Z,78.90
2023-06-20T02:29:09.402Z,79.00
2023-06-20T02:31:39.667Z,79.10
2023-06-20T02:34:08.895Z,79.20
2023-06-20T02:36:36.722Z,79.20
2023-06-20T02:39:05.901Z,79.20
2023-06-20T02:41:32.767Z,79.20
2023-06-20T02:43:59.679Z,79.30
2023-06-20T02:46:35.687Z,79.40
2023-06-20T02:49:18.421Z,79.50
2023-06-20T02:51:52.724Z,79.50
2023-06-20T02:54:25.929Z,79.30
2023-06-20T02:56:54.426Z,79.60
2023-06-20T02:59:25.441Z,79.80
2023-06-20T03:01:55.724Z,79.80
2023-06-20T03:04:25.789Z,79.80
2023-06-20T03:06:53.866Z,79.80
2023-06-20T03:09:22.425Z,79.80
2023-06-20T03:11:49.394Z,79.80
2023-06-20T03:14:16.245Z,79.80
2023-06-20T03:16:46.128Z,79.80
2023-06-20T03:19:13.127Z,80.00
2023-06-20T03:21:42.535Z,79.90
2023-06-20T03:24:12.277Z,80.00
2023-06-20T03:26:39.396Z,80.10
2023-06-20T03:29:06.837Z,80.10
2023-06-20T03:31:35.333Z,80.10
2023-06-20T03:34:02.241Z,80.20
2023-06-20T03:36:30.264Z,80.20
2023-06-20T03:38:57.156Z,80.20
2023-06-20T03:41:25.549Z,80.30
2023-06-20T03:43:53.439Z,80.30
2023-06-20T03:46:20.652Z,80.30
2023-06-20T03:48:48.894Z,80.30
2023-06-20T03:51:17.009Z,80.30
2023-06-20T03:53:44.141Z,80.30
2023-06-20T03:56:12.337Z,80.30
2023-06-20T03:58:40.669Z,80.30
2023-06-20T04:01:08.196Z,80.20
2023-06-20T04:03:35.283Z,80.10
2023-06-20T04:06:04.767Z,80.10
2023-06-20T04:08:31.792Z,80.00
2023-06-20T04:11:00.759Z,79.80
2023-06-20T04:13:28.547Z,79.80
2023-06-20T04:15:55.434Z,79.70
2023-06-20T04:18:22.283Z,79.50
2023-06-20T04:20:50.031Z,79.40
2023-06-20T04:23:16.996Z,79.30
2023-06-20T04:25:45.168Z,79.20
2023-06-20T04:28:12.037Z,79.10
2023-06-20T04:30:56.574Z,79.10
2023-06-20T04:33:24.127Z,79.20
2023-06-20T04:35:56.181Z,78.70
2023-06-20T04:38:23.482Z,78.50
2023-06-20T04:40:51.160Z,78.20
2023-06-20T04:43:18.701Z,77.90
2023-06-20T04:45:45.581Z,77.60
2023-06-20T04:48:12.573Z,77.20
2023-06-20T04:50:39.519Z,76.90
2023-06-20T04:53:06.377Z,76.70
2023-06-20T04:55:33.240Z,76.40
2023-06-20T04:58:00.147Z,76.10
2023-06-20T05:00:28.336Z,75.80
2023-06-20T05:02:59.937Z,75.60
2023-06-20T05:05:30.347Z,75.30
2023-06-20T05:07:58.016Z,74.90
2023-06-20T05:10:25.458Z,74.60
2023-06-20T05:12:52.586Z,74.30
2023-06-20T05:15:25.201Z,73.80
2023-06-20T05:17:52.462Z,73.40
2023-06-20T05:20:19.817Z,73.00
2023-06-20T05:22:46.957Z,72.60
2023-06-20T05:25:13.889Z,72.10
2023-06-20T05:27:40.774Z,71.60
2023-06-20T05:30:07.859Z,71.10
2023-06-20T05:32:34.928Z,70.30
2023-06-20T05:35:02.097Z,68.90
2023-06-20T05:37:30.195Z,67.10
2023-06-20T05:39:59.021Z,65.00
2023-06-20T05:42:27.837Z,63.20
2023-06-20T05:44:54.656Z,62.20
2023-06-20T05:47:21.666Z,61.80
2023-06-20T05:49:48.776Z,61.90
2023-06-20T05:52:16.094Z,61.60
2023-06-20T05:54:44.500Z,61.10
2023-06-20T05:57:11.386Z,60.80
2023-06-20T05:59:38.306Z,59.10
2023-06-20T06:02:06.506Z,59.10
2023-06-20T06:04:35.079Z,59.00
2023-06-20T06:07:02.167Z,58.80
2023-06-20T06:09:29.063Z,58.50
2023-06-20T06:11:55.913Z,57.90
2023-06-20T06:14:22.742Z,57.40
2023-06-20T06:16:49.651Z,56.50
2023-06-20T06:19:16.540Z,56.30
2023-06-20T06:21:43.398Z,56.80
2023-06-20T06:24:10.650Z,56.70
2023-06-20T06:26:37.580Z,56.90
2023-06-20T06:29:05.467Z,56.30
2023-06-20T06:31:34.379Z,56.10
2023-06-20T06:34:03.510Z,55.70
2023-06-20T06:36:34.837Z,55.50
2023-06-20T06:39:02.131Z,55.40
2023-06-20T06:41:29.057Z,55.00
2023-06-20T06:43:55.942Z,54.80
2023-06-20T06:46:23.506Z,53.80
2023-06-20T06:48:50.723Z,53.10
2023-06-20T06:51:17.837Z,52.50
2023-06-20T06:53:44.767Z,53.40
2023-06-20T06:56:11.882Z,54.20
2023-06-20T06:58:38.766Z,55.70
2023-06-20T07:01:05.614Z,57.10
2023-06-20T07:03:34.460Z,58.40
2023-06-20T07:06:01.660Z,59.70
2023-06-20T07:08:28.482Z,60.80
2023-06-20T07:10:55.339Z,61.30
2023-06-20T07:13:25.302Z,61.60
2023-06-20T07:15:52.307Z,62.30
2023-06-20T07:18:19.298Z,63.40
2023-06-20T07:20:46.637Z,63.90
2023-06-20T07:23:13.467Z,64.40
2023-06-20T07:25:40.368Z,65.20
2023-06-20T07:28:07.577Z,64.90
2023-06-20T07:30:34.480Z,65.30
2023-06-20T07:33:01.369Z,64.80
2023-06-20T07:35:28.554Z,65.20
2023-06-20T07:37:55.640Z,65.50
2023-06-20T07:40:22.452Z,65.10
2023-06-20T07:42:49.328Z,64.40
2023-06-20T07:45:16.197Z,64.70
2023-06-20T07:47:43.077Z,65.30
2023-06-20T07:50:10.311Z,64.70
2023-06-20T07:52:37.383Z,64.40
2023-06-20T07:55:13.700Z,63.90
2023-06-20T07:57:48.768Z,63.70
2023-06-20T08:00:15.876Z,64.30
2023-06-20T08:02:43.458Z,65.10
2023-06-20T08:05:10.541Z,64.60
2023-06-20T08:07:37.364Z,65.10
2023-06-20T08:10:04.776Z,65.30
2023-06-20T08:12:31.977Z,64.60
2023-06-20T08:14:58.833Z,64.50
2023-06-20T08:17:25.701Z,65.00
2023-06-20T08:19:52.589Z,65.40
2023-06-20T08:22:19.465Z,65.50
2023-06-20T08:24:46.353Z,66.10
2023-06-20T08:27:13.180Z,67.00
2023-06-20T08:29:40.151Z,67.10
2023-06-20T08:32:07.265Z,65.80
2023-06-20T08:34:34.130Z,66.00
2023-06-20T08:37:00.968Z,64.70
2023-06-20T08:39:27.828Z,63.90
2023-06-20T08:41:55.371Z,63.80
2023-06-20T08:44:22.298Z,63.90
2023-06-20T08:46:55.632Z,63.80
2023-06-20T08:49:22.668Z,63.80
2023-06-20T08:51:50.508Z,63.80
2023-06-20T08:54:20.057Z,63.80
2023-06-20T08:56:48.368Z,62.40
2023-06-20T08:59:15.221Z,62.70
2023-06-20T09:01:43.467Z,62.80
2023-06-20T09:04:12.856Z,62.20
2023-06-20T09:06:39.790Z,61.20
2023-06-20T09:09:06.729Z,60.70
2023-06-20T09:11:39.320Z,59.70
2023-06-20T09:14:06.178Z,59.20
2023-06-20T09:16:33.277Z,58.70
2023-06-20T09:19:00.908Z,58.90
2023-06-20T09:21:28.107Z,58.80
2023-06-20T09:24:05.004Z,59.50
2023-06-20T09:26:32.289Z,59.50
2023-06-20T09:29:25.372Z,59.50
2023-06-20T09:31:52.574Z,59.00
2023-06-20T09:34:20.195Z,58.60
2023-06-20T09:36:47.466Z,57.90
2023-06-20T09:39:24.452Z,57.30
2023-06-20T09:41:52.267Z,56.90
2023-06-20T09:44:19.312Z,57.00
2023-06-20T09:46:46.588Z,56.90
2023-06-20T09:49:14.582Z,56.80
2023-06-20T09:51:48.801Z,56.40
2023-06-20T09:54:22.923Z,55.90
2023-06-20T09:56:54.074Z,55.90
2023-06-20T09:59:22.656Z,56.90
2023-06-20T10:01:50.230Z,57.20
2023-06-20T10:04:18.469Z,56.40
2023-06-20T10:06:45.518Z,55.60
2023-06-20T10:09:12.848Z,55.20
2023-06-20T10:11:41.119Z,54.70
2023-06-20T10:14:09.531Z,53.80
2023-06-20T10:16:36.482Z,52.90
2023-06-20T10:19:19.079Z,52.50
2023-06-20T10:22:00.617Z,52.40
2023-06-20T10:24:28.646Z,52.70
2023-06-20T10:26:56.190Z,52.70
2023-06-20T10:29:23.341Z,53.30
2023-06-20T10:31:54.715Z,53.40
2023-06-20T10:34:38.034Z,53.30
2023-06-20T10:37:24.563Z,52.60
2023-06-20T10:39:54.567Z,52.20
2023-06-20T10:42:33.878Z,51.00
2023-06-20T10:45:21.080Z,50.90
2023-06-20T10:47:48.942Z,51.00
2023-06-20T10:50:16.628Z,51.00
2023-06-20T10:52:43.711Z,50.20
2023-06-20T10:55:14.774Z,49.10
2023-06-20T10:57:45.904Z,49.20
2023-06-20T11:00:15.721Z,49.60
2023-06-20T11:02:43.011Z,49.60
2023-06-20T11:05:13.221Z,50.00
2023-06-20T11:08:08.625Z,49.70
2023-06-20T11:10:37.224Z,49.30
2023-06-20T11:13:05.056Z,48.40
2023-06-20T11:15:32.876Z,48.50
2023-06-20T11:18:03.755Z,48.20
2023-06-20T11:20:31.107Z,48.00
2023-06-20T11:22:58.567Z,47.80
2023-06-20T11:25:32.529Z,47.70
2023-06-20T11:28:08.632Z,48.00
2023-06-20T11:30:36.424Z,47.80
2023-06-20T11:33:05.023Z,47.10
2023-06-20T11:35:54.013Z,46.60
2023-06-20T11:38:28.399Z,47.00
2023-06-20T11:41:05.656Z,47.60
2023-06-20T11:43:39.876Z,47.50
2023-06-20T11:46:07.343Z,47.70
2023-06-20T11:48:34.378Z,47.90
2023-06-20T11:51:02.472Z,48.40
2023-06-20T11:53:30.569Z,48.30
2023-06-20T11:56:01.273Z,47.40
2023-06-20T11:58:28.989Z,47.60
2023-06-20T12:01:00.369Z,47.60
2023-06-20T12:03:27.265Z,47.20
2023-06-20T12:05:57.902Z,47.10
2023-06-20T12:08:25.457Z,46.80
2023-06-20T12:11:03.123Z,46.90
2023-06-20T12:13:30.256Z,47.50
2023-06-20T12:15:57.659Z,48.40
2023-06-20T12:18:24.718Z,48.80
2023-06-20T12:21:03.286Z,48.90
2023-06-20T12:23:31.648Z,48.70
2023-06-20T12:25:59.978Z,47.10
2023-06-20T12:28:26.849Z,45.90
2023-06-20T12:30:54.169Z,46.10
2023-06-20T12:33:20.998Z,46.20
2023-06-20T12:35:47.848Z,46.00
2023-06-20T12:38:14.735Z,45.30
2023-06-20T12:40:41.581Z,44.50
2023-06-20T12:43:08.445Z,45.00
2023-06-20T12:45:35.312Z,45.90
2023-06-20T12:48:02.447Z,45.50
2023-06-20T12:50:29.412Z,45.90
2023-06-20T12:52:56.323Z,44.60
2023-06-20T12:55:23.339Z,45.10
2023-06-20T12:57:50.616Z,46.30
2023-06-20T13:00:18.088Z,46.40
2023-06-20T13:02:44.930Z,46.70
2023-06-20T13:05:12.751Z,46.20
2023-06-20T13:07:41.089Z,46.00
2023-06-20T13:10:08.425Z,45.90
2023-06-20T13:12:36.290Z,45.70
2023-06-20T13:15:08.145Z,45.80
2023-06-20T13:17:35.808Z,45.60
2023-06-20T13:20:04.705Z,45.80
2023-06-20T13:22:31.537Z,45.30
2023-06-20T13:24:58.450Z,45.10
2023-06-20T13:27:28.105Z,44.90
2023-06-20T13:29:55.772Z,45.10
2023-06-20T13:32:22.963Z,45.40
2023-06-20T13:34:49.975Z,45.30
2023-06-20T13:37:16.867Z,45.10
2023-06-20T13:39:44.967Z,45.30
2023-06-20T13:42:12.050Z,44.80
2023-06-20T13:44:42.279Z,45.00
2023-06-20T13:47:10.889Z,44.80
2023-06-20T13:49:37.843Z,44.50
2023-06-20T13:52:04.868Z,43.80
2023-06-20T13:54:31.848Z,43.80
2023-06-20T13:56:58.758Z,43.70
2023-06-20T13:59:27.273Z,44.50
2023-06-20T14:01:54.689Z,43.70
2023-06-20T14:04:21.718Z,42.60
2023-06-20T14:06:48.736Z,43.30
2023-06-20T14:09:15.717Z,43.20
2023-06-20T14:11:42.605Z,43.00
2023-06-20T14:14:10.415Z,43.80
2023-06-20T14:16:37.424Z,43.90
2023-06-20T14:19:05.426Z,43.50
2023-06-20T14:21:32.556Z,43.90
2023-06-20T14:23:59.520Z,44.10
2023-06-20T14:26:26.643Z,44.20
2023-06-20T14:28:53.505Z,44.10
2023-06-20T14:31:20.438Z,43.70
2023-06-20T14:33:47.439Z,43.80
2023-06-20T14:36:14.327Z,43.70
2023-06-20T14:38:42.332Z,44.30
2023-06-20T14:41:10.403Z,44.40
2023-06-20T14:43:37.410Z,44.10
2023-06-20T14:46:04.421Z,44.30
2023-06-20T14:48:31.352Z,44.40
2023-06-20T14:50:58.385Z,45.10
2023-06-20T14:53:25.674Z,45.40
2023-06-20T14:55:55.429Z,45.10
2023-06-20T14:58:22.264Z,44.30
2023-06-20T15:00:49.129Z,44.20
2023-06-20T15:03:16.065Z,44.40
2023-06-20T15:05:43.132Z,44.90
2023-06-20T15:08:11.139Z,45.00
2023-06-20T15:10:38.017Z,44.90
2023-06-20T15:13:04.980Z,44.40
2023-06-20T15:15:31.836Z,45.00
2023-06-20T15:17:59.602Z,44.90
2023-06-20T15:20:28.584Z,45.50
2023-06-20T15:22:56.892Z,45.70
2023-06-20T15:25:24.101Z,45.80
2023-06-20T15:27:50.984Z,45.70
2023-06-20T15:30:22.130Z,46.10
2023-06-20T15:32:49.076Z,46.30
2023-06-20T15:35:16.009Z,46.60
2023-06-20T15:37:42.983Z,46.40
2023-06-20T15:40:10.124Z,46.50
2023-06-20T15:42:37.101Z,46.50
2023-06-20T15:45:05.590Z,46.20
2023-06-20T15:47:32.965Z,46.30
2023-06-20T15:50:00.837Z,46.60
2023-06-20T15:52:28.008Z,46.70
2023-06-20T15:54:54.876Z,46.70
2023-06-20T15:57:21.963Z,46.80
2023-06-20T15:59:49.914Z,46.30
2023-06-20T16:02:20.120Z,46.20
2023-06-20T16:04:50.456Z,46.50
2023-06-20T16:07:17.765Z,46.40
2023-06-20T16:09:44.694Z,46.20
2023-06-20T16:12:11.940Z,45.20
2023-06-20T16:14:40.166Z,45.40
2023-06-20T16:17:07.560Z,45.80
2023-06-20T16:19:35.011Z,46.00
2023-06-20T16:22:01.962Z,46.10
2023-06-20T16:24:29.597Z,45.90
2023-06-20T16:26:57.293Z,46.00
2023-06-20T16:29:24.204Z,46.60
2023-06-20T16:31:51.062Z,47.00
2023-06-20T16:34:19.412Z,46.40
2023-06-20T16:36:46.465Z,46.00
2023-06-20T16:39:13.362Z,46.10
2023-06-20T16:41:42.487Z,46.30
2023-06-20T16:44:11.365Z,46.20
2023-06-20T16:46:39.107Z,46.20
2023-06-20T16:49:06.048Z,46.50
2023-06-20T16:51:33.212Z,46.50
2023-06-20T16:54:00.036Z,46.70
2023-06-20T16:56:26.956Z,47.00
2023-06-20T16:58:54.469Z,46.00
2023-06-20T17:01:21.605Z,46.80
2023-06-20T17:03:48.600Z,46.90
2023-06-20T17:06:15.530Z,46.10
2023-06-20T17:08:42.374Z,46.50
2023-06-20T17:11:09.256Z,46.60
2023-06-20T17:13:36.152Z,46.40
2023-06-20T17:16:03.052Z,46.70
2023-06-20T17:18:29.958Z,47.70
2023-06-20T17:20:56.788Z,47.00
2023-06-20T17:23:23.596Z,47.50
2023-06-20T17:25:50.460Z,47.60
2023-06-20T17:28:17.321Z,47.70
2023-06-20T17:30:44.182Z,47.70
2023-06-20T17:33:11.091Z,48.00
2023-06-20T17:35:37.911Z,49.00
2023-06-20T17:38:04.773Z,48.50
2023-06-20T17:40:31.682Z,49.10
2023-06-20T17:42:58.514Z,49.50
2023-06-20T17:45:25.447Z,50.30
2023-06-20T17:47:52.333Z,50.50
2023-06-20T17:50:19.225Z,50.60
2023-06-20T17:52:46.123Z,50.70
2023-06-20T17:55:13.024Z,50.60
2023-06-20T17:57:54.707Z,50.70
2023-06-20T18:00:26.678Z,50.30
2023-06-20T18:02:53.892Z,50.50
2023-06-20T18:05:20.892Z,51.00
2023-06-20T18:07:47.791Z,51.40
2023-06-20T18:10:14.662Z,51.30
2023-06-20T18:12:41.560Z,51.60
2023-06-20T18:15:08.545Z,51.30
2023-06-20T18:17:35.482Z,51.50
2023-06-20T18:20:02.643Z,51.70
2023-06-20T18:22:29.547Z,51.60
2023-06-20T18:24:56.418Z,51.80
2023-06-20T18:27:23.415Z,52.40
2023-06-20T18:29:50.391Z,52.80
2023-06-20T18:32:19.261Z,52.90
2023-06-20T18:34:46.648Z,53.10
2023-06-20T18:37:13.478Z,53.50
2023-06-20T18:39:40.430Z,53.70
2023-06-20T18:42:07.399Z,54.20
2023-06-20T18:44:34.203Z,54.80
2023-06-20T18:47:01.348Z,55.30
2023-06-20T18:49:29.101Z,55.60
2023-06-20T18:51:55.991Z,56.00
2023-06-20T18:54:22.886Z,56.10
2023-06-20T18:56:50.466Z,56.60
2023-06-20T18:59:17.526Z,57.20
2023-06-20T19:01:46.669Z,57.80
2023-06-20T19:04:13.758Z,58.30
2023-06-20T19:06:40.785Z,58.70
2023-06-20T19:09:09.408Z,59.10
2023-06-20T19:11:36.497Z,59.40
2023-06-20T19:14:05.257Z,59.60
2023-06-20T19:16:32.515Z,59.70
2023-06-20T19:18:59.484Z,59.90
2023-06-20T19:21:26.386Z,60.10
2023-06-20T19:23:56.745Z,60.20
2023-06-20T19:26:24.292Z,60.30
2023-06-20T19:28:51.156Z,60.50
2023-06-20T19:31:18.227Z,60.50
2023-06-20T19:33:47.251Z,60.50
2023-06-20T19:36:14.312Z,60.70
2023-06-20T19:38:41.331Z,60.90
2023-06-20T19:41:08.574Z,61.00
2023-06-20T19:43:35.640Z,61.00
2023-06-20T19:46:02.695Z,61.10
2023-06-20T19:48:29.701Z,61.30
2023-06-20T19:50:57.383Z,61.40
2023-06-20T19:53:24.368Z,61.40
2023-06-20T19:55:51.273Z,61.40
2023-06-20T19:58:18.152Z,61.40
2023-06-20T20:00:49.127Z,61.40
2023-06-20T20:03:16.664Z,61.40
2023-06-20T20:05:43.901Z,61.40
2023-06-20T20:08:11.981Z,61.40
2023-06-20T20:10:38.858Z,61.50
2023-06-20T20:13:05.698Z,61.70
2023-06-20T20:15:32.690Z,61.60
2023-06-20T20:17:59.623Z,61.70
2023-06-20T20:20:26.918Z,61.80
2023-06-20T20:22:56.007Z,61.60
2023-06-20T20:25:22.932Z,61.30
2023-06-20T20:27:50.686Z,61.20
2023-06-20T20:30:17.703Z,61.10
2023-06-20T20:32:46.998Z,60.90
2023-06-20T20:35:14.395Z,60.80
2023-06-20T20:37:41.259Z,60.60
2023-06-20T20:40:08.516Z,60.60
2023-06-20T20:42:35.541Z,60.60
2023-06-20T20:45:02.738Z,60.70
2023-06-20T20:47:29.591Z,60.50
2023-06-20T20:49:56.487Z,60.60
2023-06-20T20:52:23.351Z,60.60
2023-06-20T20:54:50.317Z,60.60
2023-06-20T20:57:17.253Z,60.50
2023-06-20T20:59:44.092Z,60.40
2023-06-20T21:02:11.231Z,60.40
2023-06-20T21:04:38.176Z,60.40
2023-06-20T21:07:05.161Z,60.30
2023-06-20T21:09:32.093Z,60.30
2023-06-20T21:11:58.931Z,60.10
2023-06-20T21:14:25.821Z,60.10
2023-06-20T21:16:52.798Z,60.10
2023-06-20T21:19:21.779Z,60.20
2023-06-20T21:21:48.789Z,60.30
2023-06-20T21:24:15.863Z,60.40
2023-06-20T21:26:42.797Z,60.30
2023-06-20T21:29:10.474Z,60.40
2023-06-20T21:31:37.361Z,60.40
2023-06-20T21:34:04.264Z,60.40
2023-06-20T21:36:31.270Z,60.30
2023-06-20T21:38:58.154Z,60.30
2023-06-20T21:41:25.060Z,60.30
2023-06-20T21:43:51.935Z,60.30
2023-06-20T21:46:18.932Z,60.30
2023-06-20T21:48:45.831Z,60.40
2023-06-20T21:51:12.699Z,60.60
2023-06-20T21:53:40.579Z,60.70
2023-06-20T21:56:07.402Z,60.80
2023-06-20T21:58:34.222Z,60.80
2023-06-20T22:01:01.078Z,60.80
2023-06-20T22:03:28.018Z,60.80
2023-06-20T22:05:55.866Z,60.90
2023-06-20T22:08:22.817Z,61.00
2023-06-20T22:13:19.414Z,61.00
2023-06-20T22:15:46.324Z,61.10
2023-06-20T22:18:13.250Z,61.30
2023-06-20T22:20:40.228Z,61.40
2023-06-20T22:23:08.087Z,61.60
2023-06-20T22:25:36.766Z,61.80
2023-06-20T22:28:03.861Z,61.90
2023-06-20T22:30:30.802Z,62.10
2023-06-20T22:32:57.800Z,62.40
2023-06-20T22:35:24.707Z,62.50
2023-06-20T22:37:51.564Z,62.60
2023-06-20T22:40:18.428Z,62.80
2023-06-20T22:42:45.366Z,62.90
2023-06-20T22:45:12.186Z,63.00
2023-06-20T22:47:39.061Z,63.10
2023-06-20T22:50:06.200Z,63.20
2023-06-20T22:52:33.119Z,63.30
2023-06-20T22:54:59.999Z,63.40
2023-06-20T22:57:26.910Z,63.50
2023-06-20T22:59:53.791Z,63.60
2023-06-20T23:02:20.822Z,63.80
2023-06-20T23:04:47.802Z,63.90
2023-06-20T23:07:14.606Z,64.10
2023-06-20T23:09:42.731Z,64.30
2023-06-20T23:12:10.421Z,64.40
2023-06-20T23:14:38.081Z,64.40
2023-06-20T23:17:05.504Z,64.50
2023-06-20T23:19:32.942Z,64.50
2023-06-20T23:21:59.995Z,64.50
2023-06-20T23:24:26.884Z,64.50
2023-06-20T23:26:55.347Z,64.30
2023-06-20T23:29:22.290Z,64.20
2023-06-20T23:31:49.432Z,64.00
2023-06-20T23:34:16.961Z,64.00
2023-06-20T23:36:44.011Z,64.20
2023-06-20T23:39:11.021Z,64.30
2023-06-20T23:41:39.009Z,64.40
2023-06-20T23:44:13.729Z,64.60
2023-06-20T23:46:40.955Z,64.80
2023-06-20T23:49:07.913Z,64.80
2023-06-20T23:51:36.432Z,64.80
2023-06-20T23:54:05.217Z,65.70
2023-06-20T23:56:35.445Z,64.90
2023-06-20T23:59:05.895Z,64.90
